Shawnee Hills, Ohio
Current Conditions -  °F | °C
As of 1:53 PM on Friday 24 Oct 2014 (Local Time) from KOSU Reporting Station
Clear Clear  
Wind Chill: 61°   Ceiling: Unl
Heat Index: 61°   Visibility: 10mi
Dew Point: 39°   Wind: 8mph
Humidity: 44%   Direction: 260°W
Pressure: 30.07"   Gusts: NA
Location:  40.1701°N, 83.0808°W
Report Text: KOSU 241753Z 26007KT 10SM CLR 16/04 A3007 RMK AO2 SLP186 T01610039 10161 20039 58014
Loading
Personal Weather Stations






























Interactive Weather Map
Tropical Storm Tracking
New forecast layout! Learn more

10-Day Weather Forecast

Advertisements
Track Severe Weather on mobile